sensor_id;sensor_type;location;lat;lon;timestamp;P1;durP1;ratioP1;P2;durP2;ratioP2
7179;SDS011;3631;42.152;24.756;2022-10-31T00:02:05;5.57;;;3.90;;
7179;SDS011;3631;42.152;24.756;2022-10-31T00:04:32;3.70;;;3.40;;
7179;SDS011;3631;42.152;24.756;2022-10-31T00:06:59;5.97;;;3.73;;
7179;SDS011;3631;42.152;24.756;2022-10-31T00:09:27;5.13;;;3.70;;
7179;SDS011;3631;42.152;24.756;2022-10-31T00:11:55;3.63;;;3.33;;
7179;SDS011;3631;42.152;24.756;2022-10-31T00:14:21;4.20;;;3.37;;
7179;SDS011;3631;42.152;24.756;2022-10-31T00:16:48;7.20;;;3.50;;
7179;SDS011;3631;42.152;24.756;2022-10-31T00:19:15;6.00;;;3.37;;
7179;SDS011;3631;42.152;24.756;2022-10-31T00:21:42;3.33;;;3.03;;
7179;SDS011;3631;42.152;24.756;2022-10-31T00:24:10;6.27;;;3.70;;
7179;SDS011;3631;42.152;24.756;2022-10-31T00:26:38;5.60;;;3.40;;
7179;SDS011;3631;42.152;24.756;2022-10-31T00:29:05;6.30;;;3.53;;
7179;SDS011;3631;42.152;24.756;2022-10-31T00:31:32;3.70;;;3.37;;
7179;SDS011;3631;42.152;24.756;2022-10-31T00:33:59;10.43;;;3.67;;
7179;SDS011;3631;42.152;24.756;2022-10-31T00:36:28;5.73;;;3.37;;
7179;SDS011;3631;42.152;24.756;2022-10-31T00:38:55;10.50;;;3.93;;
7179;SDS011;3631;42.152;24.756;2022-10-31T00:41:22;6.40;;;3.67;;
7179;SDS011;3631;42.152;24.756;2022-10-31T00:43:50;5.77;;;3.40;;
7179;SDS011;3631;42.152;24.756;2022-10-31T00:46:17;6.00;;;3.13;;
7179;SDS011;3631;42.152;24.756;2022-10-31T00:48:44;7.27;;;3.53;;
7179;SDS011;3631;42.152;24.756;2022-10-31T00:51:11;4.13;;;3.43;;
7179;SDS011;3631;42.152;24.756;2022-10-31T00:53:38;5.87;;;3.47;;
7179;SDS011;3631;42.152;24.756;2022-10-31T00:56:05;5.70;;;2.90;;
7179;SDS011;3631;42.152;24.756;2022-10-31T00:58:33;4.97;;;3.43;;
7179;SDS011;3631;42.152;24.756;2022-10-31T01:01:01;5.13;;;3.23;;
7179;SDS011;3631;42.152;24.756;2022-10-31T01:03:28;3.50;;;3.10;;
7179;SDS011;3631;42.152;24.756;2022-10-31T01:05:58;3.80;;;3.20;;
7179;SDS011;3631;42.152;24.756;2022-10-31T01:08:26;4.87;;;3.30;;
7179;SDS011;3631;42.152;24.756;2022-10-31T01:11:00;8.13;;;3.30;;
7179;SDS011;3631;42.152;24.756;2022-10-31T01:13:28;7.27;;;3.70;;
7179;SDS011;3631;42.152;24.756;2022-10-31T01:15:55;6.37;;;3.20;;
7179;SDS011;3631;42.152;24.756;2022-10-31T01:18:24;5.97;;;3.30;;
7179;SDS011;3631;42.152;24.756;2022-10-31T01:20:59;4.10;;;3.23;;
7179;SDS011;3631;42.152;24.756;2022-10-31T01:23:27;5.80;;;3.20;;
7179;SDS011;3631;42.152;24.756;2022-10-31T01:26:01;6.03;;;3.57;;
7179;SDS011;3631;42.152;24.756;2022-10-31T01:28:31;4.83;;;3.70;;
7179;SDS011;3631;42.152;24.756;2022-10-31T01:31:02;6.53;;;3.33;;
7179;SDS011;3631;42.152;24.756;2022-10-31T01:33:31;4.70;;;3.47;;
7179;SDS011;3631;42.152;24.756;2022-10-31T01:35:58;4.70;;;3.53;;
7179;SDS011;3631;42.152;24.756;2022-10-31T01:38:25;6.27;;;4.30;;
7179;SDS011;3631;42.152;24.756;2022-10-31T01:40:52;8.50;;;3.73;;
7179;SDS011;3631;42.152;24.756;2022-10-31T01:43:19;4.97;;;3.90;;
7179;SDS011;3631;42.152;24.756;2022-10-31T01:45:48;7.50;;;3.40;;
7179;SDS011;3631;42.152;24.756;2022-10-31T01:48:19;5.37;;;3.13;;
7179;SDS011;3631;42.152;24.756;2022-10-31T01:50:52;3.57;;;2.80;;
7179;SDS011;3631;42.152;24.756;2022-10-31T01:53:21;3.90;;;3.50;;
7179;SDS011;3631;42.152;24.756;2022-10-31T01:55:49;3.73;;;2.97;;
7179;SDS011;3631;42.152;24.756;2022-10-31T01:58:16;4.20;;;3.47;;
7179;SDS011;3631;42.152;24.756;2022-10-31T02:00:46;6.63;;;3.13;;
7179;SDS011;3631;42.152;24.756;2022-10-31T02:03:18;7.33;;;3.47;;
7179;SDS011;3631;42.152;24.756;2022-10-31T02:05:46;4.07;;;3.00;;
7179;SDS011;3631;42.152;24.756;2022-10-31T02:08:16;6.47;;;3.10;;
7179;SDS011;3631;42.152;24.756;2022-10-31T02:10:46;4.13;;;3.30;;
7179;SDS011;3631;42.152;24.756;2022-10-31T02:13:14;4.00;;;3.53;;
7179;SDS011;3631;42.152;24.756;2022-10-31T02:15:41;6.90;;;3.60;;
7179;SDS011;3631;42.152;24.756;2022-10-31T02:18:11;12.17;;;4.17;;
7179;SDS011;3631;42.152;24.756;2022-10-31T02:20:40;6.80;;;3.30;;
7179;SDS011;3631;42.152;24.756;2022-10-31T02:26:30;6.93;;;3.27;;
7179;SDS011;3631;42.152;24.756;2022-10-31T02:32:07;9.10;;;3.27;;
7179;SDS011;3631;42.152;24.756;2022-10-31T02:34:40;8.27;;;3.90;;
7179;SDS011;3631;42.152;24.756;2022-10-31T02:37:16;10.47;;;3.90;;
7179;SDS011;3631;42.152;24.756;2022-10-31T02:39:49;11.67;;;3.33;;
7179;SDS011;3631;42.152;24.756;2022-10-31T02:42:25;8.40;;;3.20;;
7179;SDS011;3631;42.152;24.756;2022-10-31T02:44:59;5.50;;;3.27;;
7179;SDS011;3631;42.152;24.756;2022-10-31T02:47:32;9.93;;;3.43;;
7179;SDS011;3631;42.152;24.756;2022-10-31T02:50:03;7.10;;;3.63;;
7179;SDS011;3631;42.152;24.756;2022-10-31T02:52:35;6.70;;;3.50;;
7179;SDS011;3631;42.152;24.756;2022-10-31T02:55:12;6.10;;;3.13;;
7179;SDS011;3631;42.152;24.756;2022-10-31T02:58:00;3.73;;;3.20;;
7179;SDS011;3631;42.152;24.756;2022-10-31T03:00:32;9.43;;;4.10;;
7179;SDS011;3631;42.152;24.756;2022-10-31T03:03:06;4.50;;;3.27;;
7179;SDS011;3631;42.152;24.756;2022-10-31T03:05:44;7.60;;;3.47;;
7179;SDS011;3631;42.152;24.756;2022-10-31T03:08:21;6.43;;;3.47;;
7179;SDS011;3631;42.152;24.756;2022-10-31T03:10:52;5.50;;;2.93;;
7179;SDS011;3631;42.152;24.756;2022-10-31T03:13:25;5.28;;;3.45;;
7179;SDS011;3631;42.152;24.756;2022-10-31T03:16:02;6.00;;;3.72;;
7179;SDS011;3631;42.152;24.756;2022-10-31T03:18:38;9.37;;;3.47;;
7179;SDS011;3631;42.152;24.756;2022-10-31T03:21:07;6.87;;;3.40;;
7179;SDS011;3631;42.152;24.756;2022-10-31T03:23:39;5.37;;;3.30;;
7179;SDS011;3631;42.152;24.756;2022-10-31T03:26:08;6.57;;;3.10;;
7179;SDS011;3631;42.152;24.756;2022-10-31T03:28:39;3.90;;;2.97;;
7179;SDS011;3631;42.152;24.756;2022-10-31T03:31:10;5.28;;;3.10;;
7179;SDS011;3631;42.152;24.756;2022-10-31T03:33:44;4.53;;;3.33;;
7179;SDS011;3631;42.152;24.756;2022-10-31T03:36:13;6.63;;;2.90;;
7179;SDS011;3631;42.152;24.756;2022-10-31T03:38:42;6.33;;;3.50;;
7179;SDS011;3631;42.152;24.756;2022-10-31T03:41:13;6.20;;;3.53;;
7179;SDS011;3631;42.152;24.756;2022-10-31T03:43:46;5.03;;;3.17;;
7179;SDS011;3631;42.152;24.756;2022-10-31T03:46:18;5.60;;;3.43;;
7179;SDS011;3631;42.152;24.756;2022-10-31T03:48:47;6.10;;;3.40;;
7179;SDS011;3631;42.152;24.756;2022-10-31T03:51:14;5.23;;;3.80;;
7179;SDS011;3631;42.152;24.756;2022-10-31T03:53:45;4.28;;;3.38;;
7179;SDS011;3631;42.152;24.756;2022-10-31T03:56:19;7.60;;;3.70;;
7179;SDS011;3631;42.152;24.756;2022-10-31T03:58:55;5.80;;;3.17;;
7179;SDS011;3631;42.152;24.756;2022-10-31T04:01:28;7.77;;;3.30;;
7179;SDS011;3631;42.152;24.756;2022-10-31T04:03:58;8.30;;;5.37;;
7179;SDS011;3631;42.152;24.756;2022-10-31T04:06:27;11.05;;;4.60;;
7179;SDS011;3631;42.152;24.756;2022-10-31T04:08:57;5.03;;;3.70;;
7179;SDS011;3631;42.152;24.756;2022-10-31T04:11:28;6.43;;;3.70;;
7179;SDS011;3631;42.152;24.756;2022-10-31T04:13:58;7.60;;;3.80;;
7179;SDS011;3631;42.152;24.756;2022-10-31T04:16:28;8.13;;;3.60;;
7179;SDS011;3631;42.152;24.756;2022-10-31T04:18:55;7.73;;;3.33;;
7179;SDS011;3631;42.152;24.756;2022-10-31T04:21:28;8.17;;;3.57;;
7179;SDS011;3631;42.152;24.756;2022-10-31T04:23:56;5.67;;;3.33;;
7179;SDS011;3631;42.152;24.756;2022-10-31T04:26:23;8.20;;;3.60;;
7179;SDS011;3631;42.152;24.756;2022-10-31T04:28:50;6.27;;;3.87;;
7179;SDS011;3631;42.152;24.756;2022-10-31T04:31:17;8.67;;;3.93;;
7179;SDS011;3631;42.152;24.756;2022-10-31T04:33:44;4.60;;;3.73;;
7179;SDS011;3631;42.152;24.756;2022-10-31T04:36:11;3.70;;;3.10;;
7179;SDS011;3631;42.152;24.756;2022-10-31T04:38:40;4.80;;;3.60;;
7179;SDS011;3631;42.152;24.756;2022-10-31T04:41:07;8.17;;;3.57;;
7179;SDS011;3631;42.152;24.756;2022-10-31T04:43:33;4.13;;;3.70;;
7179;SDS011;3631;42.152;24.756;2022-10-31T04:46:01;6.90;;;3.70;;
7179;SDS011;3631;42.152;24.756;2022-10-31T04:48:27;4.03;;;3.43;;
7179;SDS011;3631;42.152;24.756;2022-10-31T04:50:58;9.50;;;3.63;;
7179;SDS011;3631;42.152;24.756;2022-10-31T04:53:25;9.87;;;3.53;;
7179;SDS011;3631;42.152;24.756;2022-10-31T04:55:54;7.60;;;3.80;;
7179;SDS011;3631;42.152;24.756;2022-10-31T04:58:21;9.07;;;3.80;;
7179;SDS011;3631;42.152;24.756;2022-10-31T05:00:50;10.27;;;3.80;;
7179;SDS011;3631;42.152;24.756;2022-10-31T05:03:18;6.50;;;3.60;;
7179;SDS011;3631;42.152;24.756;2022-10-31T05:05:45;4.13;;;3.20;;
7179;SDS011;3631;42.152;24.756;2022-10-31T05:08:12;5.10;;;3.20;;
7179;SDS011;3631;42.152;24.756;2022-10-31T05:10:39;7.30;;;3.50;;
7179;SDS011;3631;42.152;24.756;2022-10-31T05:13:08;13.33;;;5.60;;
7179;SDS011;3631;42.152;24.756;2022-10-31T05:15:35;6.23;;;3.40;;
7179;SDS011;3631;42.152;24.756;2022-10-31T05:18:02;8.43;;;4.27;;
7179;SDS011;3631;42.152;24.756;2022-10-31T05:20:29;8.93;;;4.03;;
7179;SDS011;3631;42.152;24.756;2022-10-31T05:22:57;6.13;;;4.10;;
7179;SDS011;3631;42.152;24.756;2022-10-31T05:25:25;9.07;;;4.30;;
7179;SDS011;3631;42.152;24.756;2022-10-31T05:27:53;14.43;;;4.10;;
7179;SDS011;3631;42.152;24.756;2022-10-31T05:30:24;4.27;;;3.90;;
7179;SDS011;3631;42.152;24.756;2022-10-31T05:32:52;10.57;;;4.20;;
7179;SDS011;3631;42.152;24.756;2022-10-31T05:35:19;11.53;;;5.10;;
7179;SDS011;3631;42.152;24.756;2022-10-31T05:37:48;5.60;;;4.03;;
7179;SDS011;3631;42.152;24.756;2022-10-31T05:40:16;8.00;;;4.07;;
7179;SDS011;3631;42.152;24.756;2022-10-31T05:42:44;9.03;;;4.13;;
7179;SDS011;3631;42.152;24.756;2022-10-31T05:45:13;7.07;;;3.90;;
7179;SDS011;3631;42.152;24.756;2022-10-31T05:47:42;11.70;;;4.07;;
7179;SDS011;3631;42.152;24.756;2022-10-31T05:50:16;7.90;;;4.07;;
7179;SDS011;3631;42.152;24.756;2022-10-31T05:52:43;5.97;;;3.90;;
7179;SDS011;3631;42.152;24.756;2022-10-31T05:55:10;7.40;;;4.17;;
7179;SDS011;3631;42.152;24.756;2022-10-31T05:57:37;5.73;;;4.07;;
7179;SDS011;3631;42.152;24.756;2022-10-31T06:00:04;11.65;;;4.30;;
7179;SDS011;3631;42.152;24.756;2022-10-31T06:02:32;7.82;;;3.75;;
7179;SDS011;3631;42.152;24.756;2022-10-31T06:05:01;6.55;;;3.75;;
7179;SDS011;3631;42.152;24.756;2022-10-31T06:07:31;6.63;;;3.95;;
7179;SDS011;3631;42.152;24.756;2022-10-31T06:09:59;10.60;;;4.60;;
7179;SDS011;3631;42.152;24.756;2022-10-31T06:12:26;15.18;;;8.10;;
7179;SDS011;3631;42.152;24.756;2022-10-31T06:14:53;7.45;;;5.63;;
7179;SDS011;3631;42.152;24.756;2022-10-31T06:17:20;14.68;;;7.22;;
7179;SDS011;3631;42.152;24.756;2022-10-31T06:19:47;10.18;;;5.22;;
7179;SDS011;3631;42.152;24.756;2022-10-31T06:22:15;9.07;;;5.43;;
7179;SDS011;3631;42.152;24.756;2022-10-31T06:24:42;7.40;;;4.97;;
7179;SDS011;3631;42.152;24.756;2022-10-31T06:27:09;11.18;;;4.05;;
7179;SDS011;3631;42.152;24.756;2022-10-31T06:29:36;9.43;;;4.55;;
7179;SDS011;3631;42.152;24.756;2022-10-31T06:32:03;9.25;;;7.18;;
7179;SDS011;3631;42.152;24.756;2022-10-31T06:34:30;7.75;;;5.15;;
7179;SDS011;3631;42.152;24.756;2022-10-31T06:36:57;19.88;;;16.80;;
7179;SDS011;3631;42.152;24.756;2022-10-31T06:39:25;7.40;;;6.72;;
7179;SDS011;3631;42.152;24.756;2022-10-31T06:41:52;10.85;;;5.35;;
7179;SDS011;3631;42.152;24.756;2022-10-31T06:44:19;12.82;;;5.40;;
7179;SDS011;3631;42.152;24.756;2022-10-31T06:46:46;10.70;;;8.02;;
7179;SDS011;3631;42.152;24.756;2022-10-31T06:49:13;9.55;;;6.22;;
7179;SDS011;3631;42.152;24.756;2022-10-31T06:51:40;7.25;;;4.57;;
7179;SDS011;3631;42.152;24.756;2022-10-31T06:54:07;12.45;;;4.25;;
7179;SDS011;3631;42.152;24.756;2022-10-31T06:56:36;6.18;;;4.32;;
7179;SDS011;3631;42.152;24.756;2022-10-31T06:59:03;6.68;;;4.57;;
7179;SDS011;3631;42.152;24.756;2022-10-31T07:01:30;13.85;;;4.22;;
7179;SDS011;3631;42.152;24.756;2022-10-31T07:03:57;6.88;;;4.18;;
7179;SDS011;3631;42.152;24.756;2022-10-31T07:06:24;23.17;;;4.47;;
7179;SDS011;3631;42.152;24.756;2022-10-31T07:08:51;8.00;;;3.80;;
7179;SDS011;3631;42.152;24.756;2022-10-31T07:11:18;5.43;;;3.92;;
7179;SDS011;3631;42.152;24.756;2022-10-31T07:13:46;8.88;;;4.20;;
7179;SDS011;3631;42.152;24.756;2022-10-31T07:16:13;7.82;;;4.25;;
7179;SDS011;3631;42.152;24.756;2022-10-31T07:18:40;4.68;;;3.40;;
7179;SDS011;3631;42.152;24.756;2022-10-31T07:21:07;8.13;;;3.60;;
7179;SDS011;3631;42.152;24.756;2022-10-31T07:23:34;8.65;;;4.57;;
7179;SDS011;3631;42.152;24.756;2022-10-31T07:26:01;5.80;;;4.13;;
7179;SDS011;3631;42.152;24.756;2022-10-31T07:28:28;5.07;;;4.20;;
7179;SDS011;3631;42.152;24.756;2022-10-31T07:30:56;7.43;;;4.25;;
7179;SDS011;3631;42.152;24.756;2022-10-31T07:33:24;8.30;;;3.97;;
7179;SDS011;3631;42.152;24.756;2022-10-31T07:35:52;6.18;;;3.70;;
7179;SDS011;3631;42.152;24.756;2022-10-31T07:38:20;11.40;;;4.15;;
7179;SDS011;3631;42.152;24.756;2022-10-31T07:40:49;9.75;;;4.47;;
7179;SDS011;3631;42.152;24.756;2022-10-31T07:43:17;8.35;;;4.15;;
7179;SDS011;3631;42.152;24.756;2022-10-31T07:45:48;5.40;;;4.50;;
7179;SDS011;3631;42.152;24.756;2022-10-31T07:48:17;8.80;;;4.72;;
7179;SDS011;3631;42.152;24.756;2022-10-31T07:50:45;9.63;;;4.40;;
7179;SDS011;3631;42.152;24.756;2022-10-31T07:53:12;10.82;;;6.25;;
7179;SDS011;3631;42.152;24.756;2022-10-31T07:55:40;8.82;;;4.20;;
7179;SDS011;3631;42.152;24.756;2022-10-31T07:58:08;6.55;;;4.35;;
7179;SDS011;3631;42.152;24.756;2022-10-31T08:00:36;11.75;;;4.78;;
7179;SDS011;3631;42.152;24.756;2022-10-31T08:03:05;13.48;;;4.75;;
7179;SDS011;3631;42.152;24.756;2022-10-31T08:05:35;14.48;;;4.57;;
7179;SDS011;3631;42.152;24.756;2022-10-31T08:08:03;14.00;;;4.85;;
7179;SDS011;3631;42.152;24.756;2022-10-31T08:10:31;19.55;;;5.20;;
7179;SDS011;3631;42.152;24.756;2022-10-31T08:13:00;17.13;;;4.97;;
7179;SDS011;3631;42.152;24.756;2022-10-31T08:15:28;42.28;;;5.95;;
7179;SDS011;3631;42.152;24.756;2022-10-31T08:17:55;17.55;;;5.63;;
7179;SDS011;3631;42.152;24.756;2022-10-31T08:20:22;14.63;;;5.18;;
7179;SDS011;3631;42.152;24.756;2022-10-31T08:22:53;44.15;;;6.70;;
7179;SDS011;3631;42.152;24.756;2022-10-31T08:25:24;34.72;;;5.63;;
7179;SDS011;3631;42.152;24.756;2022-10-31T08:27:52;18.33;;;4.47;;
7179;SDS011;3631;42.152;24.756;2022-10-31T08:30:21;22.08;;;5.38;;
7179;SDS011;3631;42.152;24.756;2022-10-31T08:32:57;119.28;;;14.20;;
7179;SDS011;3631;42.152;24.756;2022-10-31T08:35:27;98.35;;;10.88;;
7179;SDS011;3631;42.152;24.756;2022-10-31T08:37:56;123.13;;;13.15;;
7179;SDS011;3631;42.152;24.756;2022-10-31T08:40:24;177.85;;;16.17;;
7179;SDS011;3631;42.152;24.756;2022-10-31T08:42:55;428.67;;;35.83;;
7179;SDS011;3631;42.152;24.756;2022-10-31T08:45:23;137.73;;;12.45;;
7179;SDS011;3631;42.152;24.756;2022-10-31T08:47:50;128.48;;;12.40;;
7179;SDS011;3631;42.152;24.756;2022-10-31T08:50:17;34.63;;;5.88;;
7179;SDS011;3631;42.152;24.756;2022-10-31T08:52:44;36.72;;;7.05;;
7179;SDS011;3631;42.152;24.756;2022-10-31T08:55:12;21.33;;;5.60;;
7179;SDS011;3631;42.152;24.756;2022-10-31T08:57:40;8.60;;;4.03;;
7179;SDS011;3631;42.152;24.756;2022-10-31T09:00:07;13.88;;;4.18;;
7179;SDS011;3631;42.152;24.756;2022-10-31T09:02:35;9.73;;;4.18;;
7179;SDS011;3631;42.152;24.756;2022-10-31T09:05:03;448.52;;;35.83;;
7179;SDS011;3631;42.152;24.756;2022-10-31T09:07:30;31.17;;;6.63;;
7179;SDS011;3631;42.152;24.756;2022-10-31T09:09:57;16.13;;;4.30;;
7179;SDS011;3631;42.152;24.756;2022-10-31T09:12:26;238.20;;;20.25;;
7179;SDS011;3631;42.152;24.756;2022-10-31T09:14:53;349.55;;;28.85;;
7179;SDS011;3631;42.152;24.756;2022-10-31T09:17:20;263.05;;;21.17;;
7179;SDS011;3631;42.152;24.756;2022-10-31T09:19:46;82.07;;;10.23;;
7179;SDS011;3631;42.152;24.756;2022-10-31T09:22:13;407.08;;;35.33;;
7179;SDS011;3631;42.152;24.756;2022-10-31T09:24:40;376.73;;;32.70;;
7179;SDS011;3631;42.152;24.756;2022-10-31T09:27:07;417.30;;;35.95;;
7179;SDS011;3631;42.152;24.756;2022-10-31T09:29:36;152.35;;;16.90;;
7179;SDS011;3631;42.152;24.756;2022-10-31T09:32:03;126.95;;;13.70;;
7179;SDS011;3631;42.152;24.756;2022-10-31T09:34:30;159.32;;;13.40;;
7179;SDS011;3631;42.152;24.756;2022-10-31T09:36:57;68.50;;;8.40;;
7179;SDS011;3631;42.152;24.756;2022-10-31T09:39:24;33.85;;;6.57;;
7179;SDS011;3631;42.152;24.756;2022-10-31T09:41:55;18.90;;;5.10;;
7179;SDS011;3631;42.152;24.756;2022-10-31T09:44:30;41.03;;;6.28;;
7179;SDS011;3631;42.152;24.756;2022-10-31T09:47:09;171.27;;;17.83;;
7179;SDS011;3631;42.152;24.756;2022-10-31T09:49:48;142.30;;;14.25;;
7179;SDS011;3631;42.152;24.756;2022-10-31T09:52:27;116.60;;;11.05;;
7179;SDS011;3631;42.152;24.756;2022-10-31T09:54:58;63.92;;;7.47;;
7179;SDS011;3631;42.152;24.756;2022-10-31T09:57:29;149.55;;;14.27;;
7179;SDS011;3631;42.152;24.756;2022-10-31T10:00:00;120.82;;;13.93;;
7179;SDS011;3631;42.152;24.756;2022-10-31T10:02:31;123.85;;;13.75;;
7179;SDS011;3631;42.152;24.756;2022-10-31T10:05:04;102.53;;;12.02;;
7179;SDS011;3631;42.152;24.756;2022-10-31T10:07:38;306.50;;;24.55;;
7179;SDS011;3631;42.152;24.756;2022-10-31T10:10:13;112.63;;;10.50;;
7179;SDS011;3631;42.152;24.756;2022-10-31T10:12:47;30.40;;;6.97;;
7179;SDS011;3631;42.152;24.756;2022-10-31T10:15:31;93.80;;;11.15;;
7179;SDS011;3631;42.152;24.756;2022-10-31T10:18:05;31.00;;;5.95;;
7179;SDS011;3631;42.152;24.756;2022-10-31T10:20:43;74.72;;;8.27;;
7179;SDS011;3631;42.152;24.756;2022-10-31T10:23:23;43.10;;;5.63;;
7179;SDS011;3631;42.152;24.756;2022-10-31T10:26:01;27.70;;;6.32;;
7179;SDS011;3631;42.152;24.756;2022-10-31T10:28:32;59.45;;;8.70;;
7179;SDS011;3631;42.152;24.756;2022-10-31T10:31:07;109.95;;;12.55;;
7179;SDS011;3631;42.152;24.756;2022-10-31T10:33:38;88.45;;;8.60;;
7179;SDS011;3631;42.152;24.756;2022-10-31T10:36:10;51.47;;;8.65;;
7179;SDS011;3631;42.152;24.756;2022-10-31T10:38:45;47.30;;;9.27;;
7179;SDS011;3631;42.152;24.756;2022-10-31T10:41:17;67.60;;;9.68;;
7179;SDS011;3631;42.152;24.756;2022-10-31T10:43:48;60.03;;;9.05;;
7179;SDS011;3631;42.152;24.756;2022-10-31T10:46:19;138.50;;;13.93;;
7179;SDS011;3631;42.152;24.756;2022-10-31T10:49:14;146.32;;;11.90;;
7179;SDS011;3631;42.152;24.756;2022-10-31T10:51:44;82.50;;;10.38;;
7179;SDS011;3631;42.152;24.756;2022-10-31T10:54:17;14.10;;;3.90;;
7179;SDS011;3631;42.152;24.756;2022-10-31T10:57:05;24.67;;;5.30;;
7179;SDS011;3631;42.152;24.756;2022-10-31T10:59:42;27.40;;;5.95;;
7179;SDS011;3631;42.152;24.756;2022-10-31T11:02:16;54.47;;;7.82;;
7179;SDS011;3631;42.152;24.756;2022-10-31T11:04:44;116.07;;;11.40;;
7179;SDS011;3631;42.152;24.756;2022-10-31T11:07:13;70.18;;;8.07;;
7179;SDS011;3631;42.152;24.756;2022-10-31T11:09:40;232.98;;;18.63;;
7179;SDS011;3631;42.152;24.756;2022-10-31T11:12:08;181.45;;;16.08;;
7179;SDS011;3631;42.152;24.756;2022-10-31T11:14:42;139.10;;;12.35;;
7179;SDS011;3631;42.152;24.756;2022-10-31T11:17:19;205.23;;;15.80;;
7179;SDS011;3631;42.152;24.756;2022-10-31T11:20:02;567.95;;;49.90;;
7179;SDS011;3631;42.152;24.756;2022-10-31T11:22:31;635.30;;;55.85;;
7179;SDS011;3631;42.152;24.756;2022-10-31T11:24:58;520.83;;;45.88;;
7179;SDS011;3631;42.152;24.756;2022-10-31T11:27:25;254.13;;;19.38;;
7179;SDS011;3631;42.152;24.756;2022-10-31T11:29:52;142.98;;;12.00;;
7179;SDS011;3631;42.152;24.756;2022-10-31T11:32:32;77.78;;;9.60;;
7179;SDS011;3631;42.152;24.756;2022-10-31T11:35:00;23.50;;;4.63;;
7179;SDS011;3631;42.152;24.756;2022-10-31T11:37:29;37.17;;;5.05;;
7179;SDS011;3631;42.152;24.756;2022-10-31T11:40:02;13.15;;;3.40;;
7179;SDS011;3631;42.152;24.756;2022-10-31T11:42:34;6.40;;;3.35;;
7179;SDS011;3631;42.152;24.756;2022-10-31T11:45:06;23.92;;;4.70;;
7179;SDS011;3631;42.152;24.756;2022-10-31T11:47:42;10.20;;;3.60;;
7179;SDS011;3631;42.152;24.756;2022-10-31T11:50:15;25.30;;;4.55;;
7179;SDS011;3631;42.152;24.756;2022-10-31T11:52:46;6.60;;;2.50;;
7179;SDS011;3631;42.152;24.756;2022-10-31T11:55:15;3.85;;;2.85;;
7179;SDS011;3631;42.152;24.756;2022-10-31T11:57:56;7.00;;;3.40;;
7179;SDS011;3631;42.152;24.756;2022-10-31T12:00:23;12.90;;;3.38;;
7179;SDS011;3631;42.152;24.756;2022-10-31T12:03:03;10.05;;;3.00;;
7179;SDS011;3631;42.152;24.756;2022-10-31T12:05:36;3.10;;;2.80;;
7179;SDS011;3631;42.152;24.756;2022-10-31T12:08:06;10.38;;;3.35;;
7179;SDS011;3631;42.152;24.756;2022-10-31T12:10:37;7.18;;;3.30;;
7179;SDS011;3631;42.152;24.756;2022-10-31T12:13:14;7.38;;;3.13;;
7179;SDS011;3631;42.152;24.756;2022-10-31T12:15:56;5.55;;;3.30;;
7179;SDS011;3631;42.152;24.756;2022-10-31T12:18:31;4.20;;;3.63;;
7179;SDS011;3631;42.152;24.756;2022-10-31T12:21:13;8.82;;;3.25;;
7179;SDS011;3631;42.152;24.756;2022-10-31T12:23:53;5.88;;;3.47;;
7179;SDS011;3631;42.152;24.756;2022-10-31T12:26:30;5.45;;;2.63;;
7179;SDS011;3631;42.152;24.756;2022-10-31T12:29:07;5.20;;;2.67;;
7179;SDS011;3631;42.152;24.756;2022-10-31T12:31:49;7.75;;;2.85;;
7179;SDS011;3631;42.152;24.756;2022-10-31T12:34:44;5.72;;;2.78;;
7179;SDS011;3631;42.152;24.756;2022-10-31T12:37:25;6.47;;;3.15;;
7179;SDS011;3631;42.152;24.756;2022-10-31T12:40:04;13.95;;;3.20;;
7179;SDS011;3631;42.152;24.756;2022-10-31T12:42:48;13.25;;;3.50;;
7179;SDS011;3631;42.152;24.756;2022-10-31T12:45:28;10.30;;;4.43;;
7179;SDS011;3631;42.152;24.756;2022-10-31T12:51:12;9.75;;;3.03;;
7179;SDS011;3631;42.152;24.756;2022-10-31T12:53:51;5.70;;;3.78;;
7179;SDS011;3631;42.152;24.756;2022-10-31T12:56:36;8.25;;;3.10;;
7179;SDS011;3631;42.152;24.756;2022-10-31T12:59:13;8.68;;;3.20;;
7179;SDS011;3631;42.152;24.756;2022-10-31T13:01:47;11.48;;;3.40;;
7179;SDS011;3631;42.152;24.756;2022-10-31T13:04:19;10.57;;;3.58;;
7179;SDS011;3631;42.152;24.756;2022-10-31T13:06:57;5.38;;;3.20;;
7179;SDS011;3631;42.152;24.756;2022-10-31T13:09:30;7.57;;;4.13;;
7179;SDS011;3631;42.152;24.756;2022-10-31T13:12:04;10.57;;;4.75;;
7179;SDS011;3631;42.152;24.756;2022-10-31T13:14:36;3.17;;;2.88;;
7179;SDS011;3631;42.152;24.756;2022-10-31T13:17:20;7.45;;;4.53;;
7179;SDS011;3631;42.152;24.756;2022-10-31T13:19:54;4.30;;;3.55;;
7179;SDS011;3631;42.152;24.756;2022-10-31T13:22:33;7.38;;;4.47;;
7179;SDS011;3631;42.152;24.756;2022-10-31T13:25:03;10.68;;;3.10;;
7179;SDS011;3631;42.152;24.756;2022-10-31T13:27:41;5.93;;;2.30;;
7179;SDS011;3631;42.152;24.756;2022-10-31T13:30:15;7.35;;;2.97;;
7179;SDS011;3631;42.152;24.756;2022-10-31T13:32:44;4.65;;;2.47;;
7179;SDS011;3631;42.152;24.756;2022-10-31T13:35:16;5.15;;;2.67;;
7179;SDS011;3631;42.152;24.756;2022-10-31T13:37:51;6.50;;;3.08;;
7179;SDS011;3631;42.152;24.756;2022-10-31T13:40:27;11.77;;;3.22;;
7179;SDS011;3631;42.152;24.756;2022-10-31T13:43:02;11.98;;;2.80;;
7179;SDS011;3631;42.152;24.756;2022-10-31T13:45:46;6.47;;;2.40;;
7179;SDS011;3631;42.152;24.756;2022-10-31T13:48:20;11.55;;;2.70;;
7179;SDS011;3631;42.152;24.756;2022-10-31T13:51:01;8.25;;;2.45;;
7179;SDS011;3631;42.152;24.756;2022-10-31T13:53:41;9.93;;;2.95;;
7179;SDS011;3631;42.152;24.756;2022-10-31T13:56:15;8.55;;;2.55;;
7179;SDS011;3631;42.152;24.756;2022-10-31T13:58:56;7.93;;;2.70;;
7179;SDS011;3631;42.152;24.756;2022-10-31T14:01:45;12.32;;;2.90;;
7179;SDS011;3631;42.152;24.756;2022-10-31T14:04:15;16.00;;;3.80;;
7179;SDS011;3631;42.152;24.756;2022-10-31T14:06:47;10.40;;;3.15;;
7179;SDS011;3631;42.152;24.756;2022-10-31T14:09:29;11.52;;;2.83;;
7179;SDS011;3631;42.152;24.756;2022-10-31T14:12:00;9.90;;;3.65;;
7179;SDS011;3631;42.152;24.756;2022-10-31T14:14:35;21.73;;;3.58;;
7179;SDS011;3631;42.152;24.756;2022-10-31T14:17:14;15.27;;;5.07;;
7179;SDS011;3631;42.152;24.756;2022-10-31T14:19:56;29.10;;;10.40;;
7179;SDS011;3631;42.152;24.756;2022-10-31T14:22:28;12.07;;;4.65;;
7179;SDS011;3631;42.152;24.756;2022-10-31T14:24:57;31.52;;;10.93;;
7179;SDS011;3631;42.152;24.756;2022-10-31T14:27:33;24.60;;;11.27;;
7179;SDS011;3631;42.152;24.756;2022-10-31T14:30:13;9.93;;;4.65;;
7179;SDS011;3631;42.152;24.756;2022-10-31T14:32:42;11.38;;;3.13;;
7179;SDS011;3631;42.152;24.756;2022-10-31T14:35:13;8.13;;;2.58;;
7179;SDS011;3631;42.152;24.756;2022-10-31T14:37:49;5.53;;;2.50;;
7179;SDS011;3631;42.152;24.756;2022-10-31T14:40:42;5.82;;;2.75;;
7179;SDS011;3631;42.152;24.756;2022-10-31T14:46:18;9.73;;;2.80;;
7179;SDS011;3631;42.152;24.756;2022-10-31T14:49:03;7.82;;;3.60;;
7179;SDS011;3631;42.152;24.756;2022-10-31T14:51:40;10.80;;;2.90;;
7179;SDS011;3631;42.152;24.756;2022-10-31T14:54:11;10.98;;;3.00;;
7179;SDS011;3631;42.152;24.756;2022-10-31T14:56:43;9.00;;;3.88;;
7179;SDS011;3631;42.152;24.756;2022-10-31T14:59:15;12.43;;;3.38;;
7179;SDS011;3631;42.152;24.756;2022-10-31T15:01:50;11.60;;;4.25;;
7179;SDS011;3631;42.152;24.756;2022-10-31T15:04:22;22.92;;;4.45;;
7179;SDS011;3631;42.152;24.756;2022-10-31T15:06:52;21.70;;;8.98;;
7179;SDS011;3631;42.152;24.756;2022-10-31T15:09:26;20.60;;;9.82;;
7179;SDS011;3631;42.152;24.756;2022-10-31T15:11:56;22.17;;;8.85;;
7179;SDS011;3631;42.152;24.756;2022-10-31T15:14:25;19.85;;;6.47;;
7179;SDS011;3631;42.152;24.756;2022-10-31T15:16:54;27.80;;;7.75;;
7179;SDS011;3631;42.152;24.756;2022-10-31T15:19:24;8.30;;;4.43;;
7179;SDS011;3631;42.152;24.756;2022-10-31T15:21:52;15.68;;;4.78;;
7179;SDS011;3631;42.152;24.756;2022-10-31T15:24:22;7.22;;;3.80;;
7179;SDS011;3631;42.152;24.756;2022-10-31T15:26:55;9.27;;;3.88;;
7179;SDS011;3631;42.152;24.756;2022-10-31T15:29:24;13.25;;;3.75;;